Time;durP1;ratioP1;P1;durP2;ratioP2;P2;SDS_P1;SDS_P2;PMS_P1;PMS_P2;Temp;Humidity;BMP_temperature;BMP_pressure;BME280_temperature;BME280_humidity;BME280_pressure;Samples;Min_cycle;Max_cycle;Signal;HPM_P1;HPM_P2
2021/06/24 00:03:20;;;;;;;1999.90;999.90;;;;;;;17.08;100.00;98580.52;3984712;73;44463;-22
2021/06/24 00:08:27;;;;;;;1999.90;999.90;;;;;;;16.92;100.00;98586.55;3977618;73;43729;-22
2021/06/24 00:13:33;;;;;;;1999.90;999.90;;;;;;;16.93;100.00;98599.13;3992652;73;43294;-22
2021/06/24 00:18:39;;;;;;;1999.90;999.90;;;;;;;16.97;100.00;98600.95;3982555;73;43063;-21
2021/06/24 00:23:46;;;;;;;1999.90;999.90;;;;;;;16.96;100.00;98582.11;3983629;73;43303;-21
2021/06/24 00:28:53;;;;;;;1999.90;999.90;;;;;;;16.96;100.00;98568.51;3978142;73;44524;-22
2021/06/24 00:33:59;;;;;;;1999.90;999.90;;;;;;;16.90;100.00;98565.50;3980022;73;43686;-21
2021/06/24 00:39:06;;;;;;;1999.90;999.90;;;;;;;16.86;100.00;98584.64;3967588;73;43774;-22
2021/06/24 00:44:12;;;;;;;1999.90;999.90;;;;;;;16.84;100.00;98574.47;3934520;73;43374;-21
2021/06/24 00:49:19;;;;;;;1999.90;999.90;;;;;;;16.77;100.00;98566.76;3954730;73;44105;-21
2021/06/24 00:54:25;;;;;;;1999.90;999.90;;;;;;;16.74;100.00;98567.17;3942755;73;44558;-22
2021/06/24 00:59:31;;;;;;;1999.90;999.90;;;;;;;16.76;100.00;98569.16;3939467;73;43012;-21
2021/06/24 01:04:37;;;;;;;1999.90;999.90;;;;;;;16.73;100.00;98578.56;3941846;73;44556;-22
2021/06/24 01:09:45;;;;;;;1999.90;999.90;;;;;;;16.64;100.00;98594.17;3945387;73;44006;-22
2021/06/24 01:14:52;;;;;;;1999.90;999.90;;;;;;;16.68;100.00;98599.23;3950065;73;43332;-22
2021/06/24 01:19:58;;;;;;;1999.90;999.90;;;;;;;16.69;100.00;98611.30;3945898;73;43086;-22
2021/06/24 01:25:05;;;;;;;1999.90;999.90;;;;;;;16.64;100.00;98621.37;3939825;73;43017;-22
2021/06/24 01:30:13;;;;;;;1999.90;999.90;;;;;;;16.56;100.00;98628.86;3939287;73;44004;-21
2021/06/24 01:35:23;;;;;;;1999.90;999.90;;;;;;;16.54;100.00;98622.23;3940337;73;26880;-22
2021/06/24 01:40:30;;;;;;;1999.90;999.90;;;;;;;16.46;100.00;98623.73;3952247;73;43753;-22
2021/06/24 01:45:47;;;;;;;1999.90;999.90;;;;;;;16.46;100.00;98621.02;3967173;74;44573;-22
2021/06/24 01:50:56;;;;;;;1999.90;999.90;;;;;;;16.44;100.00;98619.00;3926350;73;43251;-22
2021/06/24 01:56:02;;;;;;;1999.90;999.90;;;;;;;16.44;100.00;98615.78;3960022;74;43718;-22
2021/06/24 02:01:10;;;;;;;1999.90;999.90;;;;;;;16.48;100.00;98604.81;3954582;74;26353;-22
2021/06/24 02:06:24;;;;;;;1999.90;999.90;;;;;;;16.45;100.00;98609.31;3964786;74;26352;-22
2021/06/24 02:11:32;;;;;;;1999.90;999.90;;;;;;;16.43;100.00;98607.30;3978310;74;26380;-22
2021/06/24 02:16:40;;;;;;;1999.90;999.90;;;;;;;16.34;100.00;98608.47;3959505;74;26247;-22
2021/06/24 02:21:46;;;;;;;1999.90;999.90;;;;;;;16.36;100.00;98610.45;3962648;73;44080;-22
2021/06/24 02:26:55;;;;;;;1999.90;999.90;;;;;;;16.30;100.00;98604.45;3954597;74;26370;-22
2021/06/24 02:32:12;;;;;;;1999.90;999.90;;;;;;;16.29;100.00;98602.76;3964188;74;26351;-21
2021/06/24 02:37:22;;;;;;;1999.90;999.90;;;;;;;16.30;100.00;98590.31;3961738;74;26525;-21
2021/06/24 02:42:47;;;;;;;1999.90;999.90;;;;;;;16.25;100.00;98590.08;3967177;74;27027;-21
2021/06/24 02:47:54;;;;;;;1999.90;999.90;;;;;;;16.27;100.00;98579.86;3934201;74;42560;-21
2021/06/24 02:53:01;;;;;;;1999.90;999.90;;;;;;;16.16;100.00;98575.77;3961629;73;43693;-22
2021/06/24 02:58:08;;;;;;;1999.90;999.90;;;;;;;16.14;100.00;98557.97;3965208;74;43987;-21
2021/06/24 03:03:24;;;;;;;1999.90;999.90;;;;;;;16.05;100.00;98555.06;3972367;73;26329;-22
2021/06/24 03:08:48;;;;;;;1999.90;999.90;;;;;;;16.07;100.00;98542.96;3955686;74;26968;-21
2021/06/24 03:14:07;;;;;;;1999.90;999.90;;;;;;;15.99;100.00;98536.30;3968701;73;26407;-22
2021/06/24 03:19:18;;;;;;;1999.90;999.90;;;;;;;15.93;100.00;98546.57;3967825;74;26391;-22
2021/06/24 03:24:42;;;;;;;1999.90;999.90;;;;;;;15.94;100.00;98540.93;3968378;73;26359;-21
2021/06/24 03:29:50;;;;;;;1999.90;999.90;;;;;;;15.90;100.00;98540.16;3928217;74;42407;-22
2021/06/24 03:34:56;;;;;;;1999.90;999.90;;;;;;;15.93;100.00;98541.99;3974838;74;43369;-22
2021/06/24 03:40:07;;;;;;;1999.90;999.90;;;;;;;15.93;100.00;98533.84;3950337;74;44453;-22
2021/06/24 03:45:17;;;;;;;1999.90;999.90;;;;;;;15.94;100.00;98543.64;3934290;74;43357;-22
2021/06/24 03:50:24;;;;;;;1999.90;999.90;;;;;;;15.95;100.00;98539.89;3936401;74;43168;-21
2021/06/24 03:55:38;;;;;;;1999.90;999.90;;;;;;;15.92;100.00;98537.59;3934387;74;44133;-21
2021/06/24 04:00:48;;;;;;;1999.90;999.90;;;;;;;15.84;100.00;98535.83;3933668;73;26347;-22
2021/06/24 04:05:54;;;;;;;1999.90;999.90;;;;;;;15.82;100.00;98538.36;3860607;76;44085;-21
2021/06/24 04:11:01;;;;;;;1999.90;999.90;;;;;;;15.91;100.00;98548.13;3932936;74;44087;-22
2021/06/24 04:16:11;;;;;;;1999.90;999.90;;;;;;;15.96;100.00;98550.27;3933682;74;44018;-21
2021/06/24 04:21:18;;;;;;;1999.90;999.90;;;;;;;15.81;100.00;98548.94;3938791;74;44185;-21
2021/06/24 04:26:27;;;;;;;1999.90;999.90;;;;;;;15.86;100.00;98556.86;3935123;74;44424;-22
2021/06/24 04:31:34;;;;;;;1999.90;999.90;;;;;;;15.89;100.00;98547.48;3932582;73;43967;-22
2021/06/24 04:36:44;;;;;;;1999.90;999.90;;;;;;;15.83;100.00;98542.77;3937167;74;26428;-22
2021/06/24 04:41:52;;;;;;;1999.90;999.90;;;;;;;15.76;100.00;98543.22;3937535;74;26394;-21
2021/06/24 04:47:00;;;;;;;1999.90;999.90;;;;;;;15.68;100.00;98546.39;3937590;74;43690;-20
2021/06/24 04:52:08;;;;;;;1999.90;999.90;;;;;;;15.69;100.00;98549.44;3943561;74;43018;-22
2021/06/24 05:02:29;;;;;;;1999.90;999.90;;;;;;;15.78;100.00;98554.21;3954632;73;27561;-18
2021/06/24 05:07:41;;;;;;;1999.90;999.90;;;;;;;15.66;100.00;98565.25;3919612;75;26320;-20
2021/06/24 05:12:47;;;;;;;1999.90;999.90;;;;;;;15.72;100.00;98567.22;3919252;75;44050;-20
2021/06/24 05:17:53;;;;;;;1999.90;999.90;;;;;;;15.78;100.00;98573.76;3905883;75;44008;-20
2021/06/24 05:22:59;;;;;;;1999.90;999.90;;;;;;;15.83;100.00;98576.72;3922094;75;43702;-20
2021/06/24 05:28:07;;;;;;;1999.90;999.90;;;;;;;15.83;100.00;98574.01;3903877;75;44100;-20
2021/06/24 05:33:13;;;;;;;1999.90;999.90;;;;;;;15.80;100.00;98575.24;3925838;75;43647;-20
2021/06/24 05:38:20;;;;;;;1999.90;999.90;;;;;;;15.80;100.00;98571.16;3925388;74;43475;-20
2021/06/24 05:43:27;;;;;;;1999.90;999.90;;;;;;;15.83;100.00;98583.02;3923893;74;43301;-20
2021/06/24 05:48:33;;;;;;;1999.90;999.90;;;;;;;15.81;100.00;98583.72;3903076;75;43490;-20
2021/06/24 05:53:39;;;;;;;1999.90;999.90;;;;;;;15.75;100.00;98588.57;3906975;75;44077;-20
2021/06/24 05:58:45;;;;;;;1999.90;999.90;;;;;;;15.56;100.00;98588.65;3927458;74;43346;-20
2021/06/24 06:03:51;;;;;;;1999.90;999.90;;;;;;;15.31;100.00;98587.59;3939500;74;43608;-19
2021/06/24 06:08:57;;;;;;;1999.90;999.90;;;;;;;15.25;100.00;98591.04;3925296;74;44049;-20
2021/06/24 06:14:04;;;;;;;1999.90;999.90;;;;;;;15.16;100.00;98585.38;3929730;74;44048;-20
2021/06/24 06:19:11;;;;;;;1999.90;999.90;;;;;;;15.02;100.00;98591.97;3929825;74;43462;-20
2021/06/24 06:24:17;;;;;;;1999.90;999.90;;;;;;;14.85;100.00;98594.53;3765118;74;43288;-19
2021/06/24 06:29:23;;;;;;;1999.90;999.90;;;;;;;14.70;100.00;98587.20;3704067;79;43659;-19
2021/06/24 06:34:29;;;;;;;1999.90;999.90;;;;;;;14.58;100.00;98587.28;3740959;79;43357;-20
2021/06/24 06:44:49;;;;;;;1999.90;999.90;;;;;;;14.54;100.00;98590.02;3992475;73;27665;-17
2021/06/24 06:49:55;;;;;;;1999.90;999.90;;;;;;;14.42;100.00;98585.03;3943106;74;44037;-17
2021/06/24 06:55:01;;;;;;;1999.90;999.90;;;;;;;14.41;100.00;98579.28;3937822;74;42736;-21
2021/06/24 07:00:11;;;;;;;1999.90;999.90;;;;;;;14.45;100.00;98590.10;3926525;74;43182;-21
2021/06/24 07:05:17;;;;;;;1999.90;999.90;;;;;;;14.51;100.00;98591.77;3937922;74;43338;-21
2021/06/24 07:10:23;;;;;;;1999.90;999.90;;;;;;;14.54;100.00;98595.45;3934480;74;43689;-21
2021/06/24 07:15:30;;;;;;;1999.90;999.90;;;;;;;14.65;100.00;98595.01;3935977;74;44399;-21
2021/06/24 07:20:37;;;;;;;1999.90;999.90;;;;;;;14.72;100.00;98601.93;3938957;74;43380;-21
2021/06/24 07:25:43;;;;;;;1999.90;999.90;;;;;;;14.72;100.00;98601.44;3927560;74;43460;-21
2021/06/24 07:30:50;;;;;;;1999.90;999.90;;;;;;;14.78;100.00;98604.75;3923376;73;44078;-22
2021/06/24 07:35:56;;;;;;;1999.90;999.90;;;;;;;14.90;100.00;98594.80;3921705;74;43711;-21
2021/06/24 07:41:03;;;;;;;1999.90;999.90;;;;;;;15.01;100.00;98594.88;3922589;74;44546;-22
2021/06/24 07:51:22;;;;;;;1999.90;999.90;;;;;;;15.09;100.00;98591.57;4018593;73;27227;-17
2021/06/24 07:56:29;;;;;;;1999.90;999.90;;;;;;;14.92;100.00;98586.84;3963210;73;43730;-22
2021/06/24 08:01:35;;;;;;;1999.90;999.90;;;;;;;14.91;100.00;98593.78;3965068;73;44642;-22
2021/06/24 08:06:41;;;;;;;1999.90;999.90;;;;;;;15.02;100.00;98591.97;3961461;74;42901;-21
2021/06/24 08:11:47;;;;;;;1999.90;999.90;;;;;;;15.21;100.00;98596.53;3967763;73;43455;-22
2021/06/24 08:16:54;;;;;;;1999.90;999.90;;;;;;;15.34;100.00;98598.08;3958976;73;44074;-22
2021/06/24 08:22:00;;;;;;;1999.90;999.90;;;;;;;15.34;100.00;98594.01;3961786;73;43714;-22
2021/06/24 08:27:08;;;;;;;1999.90;999.90;;;;;;;15.32;100.00;98596.56;3967179;73;42859;-22
2021/06/24 08:32:14;;;;;;;1999.90;999.90;;;;;;;15.27;100.00;98590.34;3961271;73;43437;-22
2021/06/24 08:37:20;;;;;;;1999.90;999.90;;;;;;;15.28;100.00;98587.95;3974346;73;44014;-22
2021/06/24 08:42:26;;;;;;;1999.90;999.90;;;;;;;15.27;100.00;98585.45;3969499;73;44878;-22
2021/06/24 08:47:33;;;;;;;1999.90;999.90;;;;;;;15.38;100.00;98577.66;3965118;73;43079;-22
2021/06/24 08:52:39;;;;;;;1999.90;999.90;;;;;;;15.51;100.00;98582.93;3937026;74;43673;-22
2021/06/24 08:57:45;;;;;;;1999.90;999.90;;;;;;;15.60;100.00;98587.22;3914289;73;44494;-22
2021/06/24 09:02:54;;;;;;;1999.90;999.90;;;;;;;15.47;100.00;98589.26;3938855;74;44010;-22
2021/06/24 09:08:00;;;;;;;1999.90;999.90;;;;;;;15.61;100.00;98592.98;3948521;74;44090;-22
2021/06/24 09:13:07;;;;;;;1999.90;999.90;;;;;;;15.76;100.00;98597.55;3939853;74;44441;-22
2021/06/24 09:18:23;;;;;;;1999.90;999.90;;;;;;;15.83;100.00;98593.02;3937376;74;43398;-22
2021/06/24 09:23:32;;;;;;;1999.90;999.90;;;;;;;15.88;100.00;98597.41;3947362;73;44419;-22
2021/06/24 09:28:41;;;;;;;1999.90;999.90;;;;;;;16.05;100.00;98602.62;3934152;73;43756;-22
2021/06/24 09:33:47;;;;;;;1999.90;999.90;;;;;;;16.20;100.00;98607.47;3933332;74;43298;-22
2021/06/24 09:38:53;;;;;;;1999.90;999.90;;;;;;;16.39;100.00;98606.52;3943063;74;44050;-22
2021/06/24 09:43:59;;;;;;;1999.90;999.90;;;;;;;16.67;100.00;98604.34;3927351;74;43729;-22
2021/06/24 09:49:07;;;;;;;1999.90;999.90;;;;;;;16.86;100.00;98602.33;3944042;74;43297;-22
2021/06/24 09:54:15;;;;;;;1999.90;999.90;;;;;;;16.96;100.00;98597.08;3968148;74;44089;-22
2021/06/24 09:59:25;;;;;;;1999.90;999.90;;;;;;;16.96;100.00;98602.53;3966765;73;44506;-22
2021/06/24 10:04:32;;;;;;;1999.90;999.90;;;;;;;17.02;100.00;98597.13;3965643;74;43815;-22
2021/06/24 10:09:39;;;;;;;1999.90;999.90;;;;;;;17.09;100.00;98598.54;3959380;74;44019;-22
2021/06/24 10:14:47;;;;;;;1999.90;999.90;;;;;;;16.99;100.00;98596.16;3964320;74;43171;-22
2021/06/24 10:19:54;;;;;;;1999.90;999.90;;;;;;;16.69;100.00;98590.89;3961840;74;43729;-22
2021/06/24 10:25:03;;;;;;;1999.90;999.90;;;;;;;16.64;100.00;98595.53;3966661;74;44027;-22
2021/06/24 10:30:16;;;;;;;1999.90;999.90;;;;;;;16.58;100.00;98592.25;3961828;73;44597;-22
2021/06/24 10:35:28;;;;;;;1999.90;999.90;;;;;;;16.63;100.00;98596.60;3974036;74;44009;-21
2021/06/24 10:40:36;;;;;;;1999.90;999.90;;;;;;;16.74;100.00;98603.91;3965222;74;43370;-21
2021/06/24 10:45:44;;;;;;;1999.90;999.90;;;;;;;16.37;100.00;98606.70;3971430;74;44019;-22
2021/06/24 10:50:58;;;;;;;1999.90;999.90;;;;;;;16.47;100.00;98604.48;3984179;73;44049;-21
2021/06/24 10:56:19;;;;;;;1999.90;999.90;;;;;;;16.56;100.00;98598.41;3993561;73;43451;-21
2021/06/24 11:01:42;;;;;;;1999.90;999.90;;;;;;;16.41;100.00;98590.83;3986832;73;43339;-21
2021/06/24 11:06:52;;;;;;;1999.90;999.90;;;;;;;16.20;100.00;98590.34;3980588;73;44104;-22
2021/06/24 11:11:59;;;;;;;1999.90;999.90;;;;;;;16.11;100.00;98595.05;3991756;73;43979;-22
2021/06/24 11:17:25;;;;;;;1999.90;999.90;;;;;;;16.22;100.00;98596.42;3988591;73;44632;-22
2021/06/24 11:22:51;;;;;;;1999.90;999.90;;;;;;;16.41;100.00;98594.41;4000165;73;43284;-22
2021/06/24 11:28:01;;;;;;;1999.90;999.90;;;;;;;16.54;100.00;98594.20;3976669;73;43426;-21
2021/06/24 11:33:08;;;;;;;1999.90;999.90;;;;;;;16.47;100.00;98599.05;3990532;73;43363;-22
2021/06/24 11:38:14;;;;;;;1999.90;999.90;;;;;;;16.47;100.00;98595.50;3983304;73;44013;-22
2021/06/24 11:43:19;;;;;;;1999.90;999.90;;;;;;;16.44;100.00;98585.01;3979068;73;43404;-22
2021/06/24 11:48:25;;;;;;;1999.90;999.90;;;;;;;16.52;100.00;98597.13;3980979;73;44042;-22
2021/06/24 12:04:27;;;;;;;1999.90;999.90;;;;;;;16.58;100.00;98603.67;3983878;73;44100;-22
2021/06/24 12:09:42;;;;;;;1999.90;999.90;;;;;;;16.57;100.00;98604.70;3982678;73;43715;-21
2021/06/24 12:20:04;;;;;;;1999.90;999.90;;;;;;;16.30;100.00;98601.72;3962849;72;27645;-20
2021/06/24 12:25:14;;;;;;;1999.90;999.90;;;;;;;15.98;100.00;98602.02;3916022;75;43325;-21
2021/06/24 12:30:23;;;;;;;1999.90;999.90;;;;;;;15.50;100.00;98609.75;3928361;75;43404;-20
2021/06/24 12:40:50;;;;;;;1999.90;999.90;;;;;;;14.83;100.00;98607.44;4005447;72;27268;-17
2021/06/24 12:45:59;;;;;;;1999.90;999.90;;;;;;;14.61;100.00;98604.55;3919139;75;42972;-21
2021/06/24 12:56:24;;;;;;;1999.90;999.90;;;;;;;14.52;100.00;98594.81;3996138;73;27261;-18
2021/06/24 13:01:33;;;;;;;1999.90;999.90;;;;;;;14.51;100.00;98603.44;3926966;75;43972;-22
2021/06/24 13:06:44;;;;;;;1999.90;999.90;;;;;;;14.53;100.00;98604.60;3932986;75;43774;-22
2021/06/24 13:11:59;;;;;;;1999.90;999.90;;;;;;;14.59;100.00;98588.98;3914273;73;42946;-22
2021/06/24 13:17:10;;;;;;;1999.90;999.90;;;;;;;14.64;100.00;98585.22;3938132;75;43334;-22
2021/06/24 13:22:18;;;;;;;1999.90;999.90;;;;;;;14.79;100.00;98584.73;3929959;75;44651;-22
2021/06/24 13:27:27;;;;;;;1999.90;999.90;;;;;;;14.78;100.00;98580.34;3931480;75;43379;-23
2021/06/24 13:32:35;;;;;;;1999.90;999.90;;;;;;;14.82;100.00;98585.41;3939713;73;44071;-22
2021/06/24 13:37:51;;;;;;;1999.90;999.90;;;;;;;14.85;100.00;98574.19;3920290;75;44466;-22
2021/06/24 13:42:59;;;;;;;1999.90;999.90;;;;;;;14.90;100.00;98569.89;3927279;73;44124;-22
2021/06/24 13:48:09;;;;;;;1999.90;999.90;;;;;;;14.97;100.00;98571.36;3930193;75;43346;-22
2021/06/24 13:53:16;;;;;;;1999.90;999.90;;;;;;;15.11;100.00;98575.09;3925372;75;43651;-22
2021/06/24 13:58:24;;;;;;;1999.90;999.90;;;;;;;15.04;100.00;98572.28;3929131;75;43697;-23
2021/06/24 14:03:30;;;;;;;1999.90;999.90;;;;;;;15.01;100.00;98573.17;3925401;75;44041;-22
2021/06/24 14:08:36;;;;;;;1999.90;999.90;;;;;;;15.14;100.00;98573.87;3923385;75;43716;-22
2021/06/24 14:13:43;;;;;;;1999.90;999.90;;;;;;;15.24;100.00;98579.35;3935313;73;43694;-22
2021/06/24 14:18:50;;;;;;;1999.90;999.90;;;;;;;15.39;100.00;98576.63;3921948;75;43721;-20
2021/06/24 14:23:57;;;;;;;1999.90;999.90;;;;;;;15.41;100.00;98573.20;3928973;75;43432;-23
2021/06/24 14:29:04;;;;;;;1999.90;999.90;;;;;;;15.50;100.00;98564.95;3939729;73;44200;-22
2021/06/24 14:34:11;;;;;;;1999.90;999.90;;;;;;;15.47;100.00;98562.11;3941697;75;44026;-23
2021/06/24 14:39:18;;;;;;;1999.90;999.90;;;;;;;15.48;100.00;98558.86;3886348;76;44448;-22
2021/06/24 14:44:24;;;;;;;1999.90;999.90;;;;;;;15.46;100.00;98557.70;3890501;74;44020;-22
2021/06/24 14:54:44;;;;;;;1999.90;999.90;;;;;;;15.59;100.00;98566.52;4025101;73;27154;-20
2021/06/24 15:05:09;;;;;;;1999.90;999.90;;;;;;;15.22;100.00;98561.58;4050856;72;27234;-19
2021/06/24 15:10:16;;;;;;;1999.90;999.90;;;;;;;15.15;100.00;98556.56;3954995;75;44042;-21
2021/06/24 15:15:25;;;;;;;1999.90;999.90;;;;;;;15.02;100.00;98553.98;3983684;73;44366;-21
2021/06/24 15:20:32;;;;;;;1999.90;999.90;;;;;;;14.97;100.00;98555.08;3963125;73;43407;-20
2021/06/24 15:30:53;;;;;;;1999.90;999.90;;;;;;;15.04;100.00;98547.03;4044901;72;27268;-21
2021/06/24 15:36:00;;;;;;;1999.90;999.90;;;;;;;14.94;100.00;98547.30;3948443;75;44188;-21
2021/06/24 15:46:20;;;;;;;1999.90;999.90;;;;;;;14.88;100.00;98546.67;4002708;73;27719;-20
2021/06/24 15:51:26;;;;;;;1999.90;999.90;;;;;;;14.77;100.00;98544.75;3819155;76;42987;-22
2021/06/24 15:56:34;;;;;;;1999.90;999.90;;;;;;;14.77;100.00;98533.08;3892704;75;43700;-20
2021/06/24 16:01:41;;;;;;;1999.90;999.90;;;;;;;14.85;100.00;98526.20;3893145;75;43392;-21
2021/06/24 16:06:48;;;;;;;1999.90;999.90;;;;;;;14.87;100.00;98512.47;3819198;77;44136;-21
2021/06/24 16:11:59;;;;;;;1999.90;999.90;;;;;;;14.95;100.00;98510.48;3892473;75;43157;-21
2021/06/24 16:17:03;;;;;;;1999.90;999.90;;;;;;;14.92;100.00;98506.81;3816750;77;45172;-21
2021/06/24 16:22:09;;;;;;;1999.90;999.90;;;;;;;15.14;100.00;98508.74;3960084;75;43334;-21
2021/06/24 16:27:16;;;;;;;1999.90;999.90;;;;;;;15.22;100.00;98502.70;3960202;75;43596;-21
2021/06/24 16:32:22;;;;;;;1999.90;999.90;;;;;;;15.32;100.00;98503.77;3949667;75;44381;-21
2021/06/24 16:37:29;;;;;;;1999.90;999.90;;;;;;;15.30;100.00;98505.83;3931020;74;42910;-21
2021/06/24 16:42:36;;;;;;;1999.90;999.90;;;;;;;15.24;100.00;98495.72;3959939;73;44616;-21
2021/06/24 16:47:42;;;;;;;1999.90;999.90;;;;;;;15.19;100.00;98509.03;3910723;75;43370;-21
2021/06/24 16:52:51;;;;;;;1999.90;999.90;;;;;;;15.25;100.00;98497.40;3898617;75;44649;-21
2021/06/24 16:57:57;;;;;;;1999.90;999.90;;;;;;;15.32;100.00;98492.91;3878820;75;43039;-21
2021/06/24 17:03:04;;;;;;;1999.90;999.90;;;;;;;15.28;100.00;98486.17;3866337;76;43705;-22
2021/06/24 17:08:12;;;;;;;1999.90;999.90;;;;;;;15.37;100.00;98480.12;3930691;75;44001;-21
2021/06/24 17:13:19;;;;;;;1999.90;999.90;;;;;;;15.44;100.00;98473.42;3857861;77;43491;-21
2021/06/24 17:18:26;;;;;;;1999.90;999.90;;;;;;;15.41;100.00;98479.55;3888886;75;44059;-21
2021/06/24 17:23:33;;;;;;;1999.90;999.90;;;;;;;15.54;100.00;98467.16;3907867;75;43022;-21
2021/06/24 17:28:42;;;;;;;1999.90;999.90;;;;;;;15.63;100.00;98457.84;3851194;77;43706;-22
2021/06/24 17:33:48;;;;;;;1999.90;999.90;;;;;;;15.63;100.00;98457.84;3933766;75;44099;-21
2021/06/24 17:38:55;;;;;;;1999.90;999.90;;;;;;;15.50;100.00;98467.20;3797765;77;43588;-21
2021/06/24 17:44:02;;;;;;;1999.90;999.90;;;;;;;15.46;100.00;98471.36;3911246;74;43414;-21
2021/06/24 17:49:10;;;;;;;1999.90;999.90;;;;;;;15.53;100.00;98473.09;3897856;76;44191;-21
2021/06/24 17:54:17;;;;;;;1999.90;999.90;;;;;;;15.51;100.00;98478.39;3877084;76;43682;-21
2021/06/24 17:59:24;;;;;;;1999.90;999.90;;;;;;;15.49;100.00;98488.59;3839450;76;43428;-21
2021/06/24 18:04:34;;;;;;;1999.90;999.90;;;;;;;15.35;100.00;98481.66;3847097;76;26823;-21
2021/06/24 18:09:40;;;;;;;1999.90;999.90;;;;;;;15.31;100.00;98483.59;3988111;74;43376;-21
2021/06/24 18:14:47;;;;;;;1999.90;999.90;;;;;;;15.22;100.00;98481.52;3884913;76;42664;-21
2021/06/24 18:19:53;;;;;;;1999.90;999.90;;;;;;;15.17;100.00;98478.52;3765249;79;43630;-21
2021/06/24 18:25:00;;;;;;;1999.90;999.90;;;;;;;15.14;100.00;98474.82;3776245;77;44037;-21
2021/06/24 18:30:11;;;;;;;1999.90;999.90;;;;;;;15.15;100.00;98476.50;3844531;76;42924;-21
2021/06/24 18:35:18;;;;;;;1999.90;999.90;;;;;;;15.20;100.00;98463.22;3859249;76;44047;-21
2021/06/24 18:40:24;;;;;;;1999.90;999.90;;;;;;;15.17;100.00;98460.35;3776827;77;43753;-21
2021/06/24 18:45:31;;;;;;;1999.90;999.90;;;;;;;15.20;100.00;98452.37;3825945;77;43737;-21
2021/06/24 18:55:48;;;;;;;1999.90;999.90;;;;;;;15.12;100.00;98430.75;4004484;72;27213;-21
2021/06/24 19:00:57;;;;;;;1999.90;999.90;;;;;;;15.14;100.00;98435.47;3939300;75;44128;-21
2021/06/24 19:06:03;;;;;;;1999.90;999.90;;;;;;;15.14;100.00;98425.48;3920678;73;44434;-19
2021/06/24 19:16:23;;;;;;;1999.90;999.90;;;;;;;15.20;100.00;98410.30;4076141;72;27539;-18
2021/06/24 19:21:31;;;;;;;1999.90;999.90;;;;;;;15.07;100.00;98400.98;4018657;73;44009;-21
2021/06/24 19:26:38;;;;;;;1999.90;999.90;;;;;;;14.95;100.00;98403.85;3967334;73;43731;-21
2021/06/24 19:31:46;;;;;;;1999.90;999.90;;;;;;;14.87;100.00;98422.95;3994896;73;44018;-21
2021/06/24 19:36:52;;;;;;;1999.90;999.90;;;;;;;14.73;100.00;98436.34;4013078;73;43689;-20
2021/06/24 19:42:00;;;;;;;1999.90;999.90;;;;;;;14.63;100.00;98466.41;3975827;73;43721;-21
2021/06/24 19:52:17;;;;;;;1999.90;999.90;;;;;;;14.67;100.00;98502.15;4009057;73;27102;-20
2021/06/24 19:57:26;;;;;;;1999.90;999.90;;;;;;;14.69;100.00;98512.30;3923085;75;44015;-22
2021/06/24 20:02:33;;;;;;;1999.90;999.90;;;;;;;14.76;100.00;98528.15;3926735;73;43432;-22
2021/06/24 20:07:41;;;;;;;1999.90;999.90;;;;;;;14.84;100.00;98530.46;3928784;74;44058;-22
2021/06/24 20:12:49;;;;;;;1999.90;999.90;;;;;;;14.87;100.00;98528.75;3929163;75;43403;-22
2021/06/24 20:17:55;;;;;;;1999.90;999.90;;;;;;;14.80;100.00;98527.28;3924968;75;44078;-22
2021/06/24 20:23:01;;;;;;;1999.90;999.90;;;;;;;14.79;100.00;98526.42;3927761;75;43685;-22
2021/06/24 20:28:08;;;;;;;1999.90;999.90;;;;;;;14.76;100.00;98524.08;3928602;74;44113;-22
2021/06/24 20:33:13;;;;;;;1999.90;999.90;;;;;;;14.78;100.00;98526.09;3903101;75;44035;-22
2021/06/24 20:43:33;;;;;;;1999.90;999.90;;;;;;;14.78;100.00;98534.23;4074298;73;27507;-20
2021/06/24 20:53:53;;;;;;;1999.90;999.90;;;;;;;14.77;100.00;98533.08;4039379;73;27071;-19
2021/06/24 20:59:00;;;;;;;1999.90;999.90;;;;;;;14.72;100.00;98531.42;3953692;75;44083;-21
2021/06/24 21:04:07;;;;;;;1999.90;999.90;;;;;;;14.69;100.00;98526.39;3963132;75;44129;-22
2021/06/24 21:14:26;;;;;;;1999.90;999.90;;;;;;;14.71;100.00;98522.95;4062128;73;27137;-20
2021/06/24 21:24:45;;;;;;;1999.90;999.90;;;;;;;14.62;100.00;98523.02;4007860;73;27669;-20
2021/06/24 21:35:05;;;;;;;1999.90;999.90;;;;;;;14.49;100.00;98503.83;4053217;73;27185;-21
2021/06/24 21:45:26;;;;;;;1999.90;999.90;;;;;;;14.45;100.00;98514.20;4025575;73;27206;-21
2021/06/24 21:55:53;;;;;;;1999.90;999.90;;;;;;;14.47;100.00;98528.91;4025665;73;27163;-19
2021/06/24 22:06:12;;;;;;;1999.90;999.90;;;;;;;14.40;100.00;98494.95;4024694;73;27198;-19
2021/06/24 22:16:32;;;;;;;1999.90;999.90;;;;;;;14.42;100.00;98486.10;4026465;72;27193;-20
2021/06/24 22:21:39;;;;;;;1999.90;999.90;;;;;;;14.39;100.00;98495.12;3935645;75;44421;-22
2021/06/24 22:31:58;;;;;;;1999.90;999.90;;;;;;;14.52;100.00;98510.24;4078990;72;27611;-20
2021/06/24 22:37:04;;;;;;;1999.90;999.90;;;;;;;14.53;100.00;98511.07;3981408;73;43379;-23
2021/06/24 22:42:11;;;;;;;1999.90;999.90;;;;;;;14.57;100.00;98510.55;3972295;73;43685;-23
2021/06/24 22:52:29;;;;;;;1999.90;999.90;;;;;;;14.66;100.00;98519.41;4048358;73;27831;-20
2021/06/24 23:02:47;;;;;;;1999.90;999.90;;;;;;;14.66;100.00;98527.55;4048235;73;27116;-21
2021/06/24 23:13:06;;;;;;;1999.90;999.90;;;;;;;14.62;100.00;98539.28;4079337;73;27094;-22
2021/06/24 23:23:26;;;;;;;1999.90;999.90;;;;;;;14.53;100.00;98551.73;4046396;73;27584;-20
2021/06/24 23:33:45;;;;;;;1999.90;999.90;;;;;;;14.53;100.00;98546.31;4041894;72;27166;-21
2021/06/24 23:44:03;;;;;;;1999.90;999.90;;;;;;;14.43;100.00;98540.64;4068407;73;27220;-22
2021/06/24 23:54:22;;;;;;;1999.90;999.90;;;;;;;14.38;100.00;98524.11;4064257;73;27290;-23
